sensor_id;sensor_type;location;lat;lon;timestamp;P1;durP1;ratioP1;P2;durP2;ratioP2
67597;SDS011;62026;39.230;9.122;2022-11-04T00:01:58;21.50;;;6.70;;
67597;SDS011;62026;39.230;9.122;2022-11-04T00:04:27;18.40;;;6.60;;
67597;SDS011;62026;39.230;9.122;2022-11-04T00:06:53;18.60;;;6.10;;
67597;SDS011;62026;39.230;9.122;2022-11-04T00:09:22;19.60;;;6.00;;
67597;SDS011;62026;39.230;9.122;2022-11-04T00:11:51;20.70;;;6.00;;
67597;SDS011;62026;39.230;9.122;2022-11-04T00:14:36;21.65;;;6.70;;
67597;SDS011;62026;39.230;9.122;2022-11-04T00:17:03;22.33;;;5.80;;
67597;SDS011;62026;39.230;9.122;2022-11-04T00:19:49;18.40;;;5.93;;
67597;SDS011;62026;39.230;9.122;2022-11-04T00:22:36;19.38;;;6.13;;
67597;SDS011;62026;39.230;9.122;2022-11-04T00:25:23;18.23;;;5.57;;
67597;SDS011;62026;39.230;9.122;2022-11-04T00:28:12;19.08;;;6.28;;
67597;SDS011;62026;39.230;9.122;2022-11-04T00:31:03;16.83;;;5.95;;
67597;SDS011;62026;39.230;9.122;2022-11-04T00:33:51;15.43;;;5.65;;
67597;SDS011;62026;39.230;9.122;2022-11-04T00:36:19;17.15;;;6.15;;
67597;SDS011;62026;39.230;9.122;2022-11-04T00:38:47;18.52;;;5.93;;
67597;SDS011;62026;39.230;9.122;2022-11-04T00:41:13;14.68;;;5.47;;
67597;SDS011;62026;39.230;9.122;2022-11-04T00:43:52;14.43;;;5.63;;
67597;SDS011;62026;39.230;9.122;2022-11-04T00:46:22;12.70;;;5.80;;
67597;SDS011;62026;39.230;9.122;2022-11-04T00:48:49;15.15;;;6.00;;
67597;SDS011;62026;39.230;9.122;2022-11-04T00:51:15;17.90;;;5.55;;
67597;SDS011;62026;39.230;9.122;2022-11-04T00:53:41;19.40;;;5.38;;
67597;SDS011;62026;39.230;9.122;2022-11-04T00:56:07;17.17;;;6.15;;
67597;SDS011;62026;39.230;9.122;2022-11-04T00:58:33;17.45;;;5.50;;
67597;SDS011;62026;39.230;9.122;2022-11-04T01:00:59;16.02;;;6.05;;
67597;SDS011;62026;39.230;9.122;2022-11-04T01:03:25;15.65;;;5.38;;
67597;SDS011;62026;39.230;9.122;2022-11-04T01:05:51;15.13;;;6.35;;
67597;SDS011;62026;39.230;9.122;2022-11-04T01:08:17;17.42;;;5.95;;
67597;SDS011;62026;39.230;9.122;2022-11-04T01:10:43;17.40;;;6.00;;
67597;SDS011;62026;39.230;9.122;2022-11-04T01:13:09;16.75;;;5.82;;
67597;SDS011;62026;39.230;9.122;2022-11-04T01:15:36;21.20;;;5.95;;
67597;SDS011;62026;39.230;9.122;2022-11-04T01:18:02;22.13;;;5.82;;
67597;SDS011;62026;39.230;9.122;2022-11-04T01:20:29;14.48;;;5.15;;
67597;SDS011;62026;39.230;9.122;2022-11-04T01:22:56;17.10;;;6.10;;
67597;SDS011;62026;39.230;9.122;2022-11-04T01:25:22;19.83;;;6.05;;
67597;SDS011;62026;39.230;9.122;2022-11-04T01:27:48;17.70;;;5.93;;
67597;SDS011;62026;39.230;9.122;2022-11-04T01:30:14;16.35;;;5.55;;
67597;SDS011;62026;39.230;9.122;2022-11-04T01:32:40;16.38;;;5.57;;
67597;SDS011;62026;39.230;9.122;2022-11-04T01:35:07;17.70;;;6.93;;
67597;SDS011;62026;39.230;9.122;2022-11-04T01:37:33;19.30;;;5.57;;
67597;SDS011;62026;39.230;9.122;2022-11-04T01:39:59;18.73;;;6.32;;
67597;SDS011;62026;39.230;9.122;2022-11-04T01:42:26;20.00;;;5.60;;
67597;SDS011;62026;39.230;9.122;2022-11-04T01:44:55;17.55;;;5.75;;
67597;SDS011;62026;39.230;9.122;2022-11-04T01:49:52;19.73;;;6.18;;
67597;SDS011;62026;39.230;9.122;2022-11-04T01:52:59;13.55;;;5.53;;
67597;SDS011;62026;39.230;9.122;2022-11-04T01:55:31;16.77;;;5.32;;
67597;SDS011;62026;39.230;9.122;2022-11-04T01:58:02;11.27;;;5.35;;
67597;SDS011;62026;39.230;9.122;2022-11-04T02:00:33;16.08;;;6.00;;
67597;SDS011;62026;39.230;9.122;2022-11-04T02:03:06;16.33;;;5.45;;
67597;SDS011;62026;39.230;9.122;2022-11-04T02:05:48;20.63;;;6.13;;
67597;SDS011;62026;39.230;9.122;2022-11-04T02:08:16;14.77;;;6.18;;
67597;SDS011;62026;39.230;9.122;2022-11-04T02:10:45;20.65;;;5.68;;
67597;SDS011;62026;39.230;9.122;2022-11-04T02:13:22;17.30;;;5.63;;
67597;SDS011;62026;39.230;9.122;2022-11-04T02:15:53;14.70;;;5.30;;
67597;SDS011;62026;39.230;9.122;2022-11-04T02:27:17;16.35;;;5.68;;
67597;SDS011;62026;39.230;9.122;2022-11-04T02:44:19;16.63;;;5.85;;
67597;SDS011;62026;39.230;9.122;2022-11-04T02:47:06;19.90;;;5.70;;
67597;SDS011;62026;39.230;9.122;2022-11-04T02:50:22;18.73;;;5.43;;
67597;SDS011;62026;39.230;9.122;2022-11-04T02:53:03;20.67;;;5.88;;
67597;SDS011;62026;39.230;9.122;2022-11-04T02:55:45;13.35;;;5.32;;
67597;SDS011;62026;39.230;9.122;2022-11-04T02:58:38;16.63;;;5.40;;
67597;SDS011;62026;39.230;9.122;2022-11-04T03:01:35;15.27;;;5.07;;
67597;SDS011;62026;39.230;9.122;2022-11-04T03:04:10;13.05;;;5.40;;
67597;SDS011;62026;39.230;9.122;2022-11-04T03:06:44;15.77;;;5.72;;
67597;SDS011;62026;39.230;9.122;2022-11-04T03:09:14;21.33;;;5.63;;
67597;SDS011;62026;39.230;9.122;2022-11-04T03:11:46;17.77;;;5.63;;
67597;SDS011;62026;39.230;9.122;2022-11-04T03:14:18;18.27;;;5.47;;
67597;SDS011;62026;39.230;9.122;2022-11-04T03:16:55;14.85;;;5.72;;
67597;SDS011;62026;39.230;9.122;2022-11-04T03:19:29;18.90;;;5.72;;
67597;SDS011;62026;39.230;9.122;2022-11-04T03:22:08;19.42;;;5.78;;
67597;SDS011;62026;39.230;9.122;2022-11-04T03:24:43;19.05;;;5.65;;
67597;SDS011;62026;39.230;9.122;2022-11-04T03:32:56;17.42;;;5.38;;
67597;SDS011;62026;39.230;9.122;2022-11-04T03:35:38;15.07;;;5.45;;
67597;SDS011;62026;39.230;9.122;2022-11-04T03:38:04;13.98;;;5.82;;
67597;SDS011;62026;39.230;9.122;2022-11-04T03:40:30;16.63;;;5.25;;
67597;SDS011;62026;39.230;9.122;2022-11-04T03:43:02;17.25;;;5.53;;
67597;SDS011;62026;39.230;9.122;2022-11-04T03:45:40;15.80;;;5.90;;
67597;SDS011;62026;39.230;9.122;2022-11-04T03:48:07;12.05;;;5.03;;
67597;SDS011;62026;39.230;9.122;2022-11-04T03:50:41;14.85;;;4.72;;
67597;SDS011;62026;39.230;9.122;2022-11-04T03:53:12;15.05;;;5.35;;
67597;SDS011;62026;39.230;9.122;2022-11-04T03:59:11;15.00;;;4.80;;
67597;SDS011;62026;39.230;9.122;2022-11-04T04:07:11;12.93;;;4.72;;
67597;SDS011;62026;39.230;9.122;2022-11-04T04:09:50;15.20;;;4.60;;
67597;SDS011;62026;39.230;9.122;2022-11-04T04:12:59;19.20;;;4.78;;
67597;SDS011;62026;39.230;9.122;2022-11-04T04:15:39;16.75;;;4.68;;
67597;SDS011;62026;39.230;9.122;2022-11-04T04:18:13;15.17;;;4.60;;
67597;SDS011;62026;39.230;9.122;2022-11-04T04:20:46;16.60;;;4.53;;
67597;SDS011;62026;39.230;9.122;2022-11-04T04:23:17;13.88;;;4.78;;
67597;SDS011;62026;39.230;9.122;2022-11-04T04:26:08;12.27;;;4.50;;
67597;SDS011;62026;39.230;9.122;2022-11-04T04:28:56;17.98;;;4.95;;
67597;SDS011;62026;39.230;9.122;2022-11-04T04:31:27;13.18;;;4.35;;
67597;SDS011;62026;39.230;9.122;2022-11-04T04:34:15;11.50;;;4.20;;
67597;SDS011;62026;39.230;9.122;2022-11-04T04:37:01;12.35;;;4.05;;
67597;SDS011;62026;39.230;9.122;2022-11-04T04:39:38;11.95;;;3.97;;
67597;SDS011;62026;39.230;9.122;2022-11-04T04:42:32;12.48;;;4.00;;
67597;SDS011;62026;39.230;9.122;2022-11-04T04:45:22;14.10;;;4.10;;
67597;SDS011;62026;39.230;9.122;2022-11-04T04:47:58;20.30;;;4.25;;
67597;SDS011;62026;39.230;9.122;2022-11-04T04:50:26;11.40;;;4.25;;
67597;SDS011;62026;39.230;9.122;2022-11-04T04:52:57;15.93;;;4.30;;
67597;SDS011;62026;39.230;9.122;2022-11-04T04:55:28;15.23;;;4.20;;
67597;SDS011;62026;39.230;9.122;2022-11-04T04:57:56;11.48;;;4.00;;
67597;SDS011;62026;39.230;9.122;2022-11-04T05:00:23;21.73;;;4.13;;
67597;SDS011;62026;39.230;9.122;2022-11-04T05:02:50;14.10;;;4.45;;
67597;SDS011;62026;39.230;9.122;2022-11-04T05:05:16;12.77;;;4.35;;
67597;SDS011;62026;39.230;9.122;2022-11-04T05:07:43;15.32;;;4.47;;
67597;SDS011;62026;39.230;9.122;2022-11-04T05:10:10;16.85;;;5.00;;
67597;SDS011;62026;39.230;9.122;2022-11-04T05:12:38;17.67;;;4.30;;
67597;SDS011;62026;39.230;9.122;2022-11-04T05:15:24;20.98;;;5.07;;
67597;SDS011;62026;39.230;9.122;2022-11-04T05:17:55;21.63;;;4.95;;
67597;SDS011;62026;39.230;9.122;2022-11-04T05:20:24;15.82;;;4.88;;
67597;SDS011;62026;39.230;9.122;2022-11-04T05:22:51;15.50;;;4.80;;
67597;SDS011;62026;39.230;9.122;2022-11-04T05:25:19;21.35;;;4.80;;
67597;SDS011;62026;39.230;9.122;2022-11-04T05:27:45;20.38;;;4.97;;
67597;SDS011;62026;39.230;9.122;2022-11-04T05:30:11;19.05;;;5.00;;
67597;SDS011;62026;39.230;9.122;2022-11-04T05:32:37;19.00;;;4.60;;
67597;SDS011;62026;39.230;9.122;2022-11-04T05:35:03;19.77;;;5.20;;
67597;SDS011;62026;39.230;9.122;2022-11-04T05:37:29;19.30;;;5.25;;
67597;SDS011;62026;39.230;9.122;2022-11-04T05:39:55;20.25;;;4.90;;
67597;SDS011;62026;39.230;9.122;2022-11-04T05:42:21;20.15;;;5.13;;
67597;SDS011;62026;39.230;9.122;2022-11-04T05:44:47;15.75;;;4.93;;
67597;SDS011;62026;39.230;9.122;2022-11-04T05:47:13;19.52;;;5.03;;
67597;SDS011;62026;39.230;9.122;2022-11-04T05:49:40;18.67;;;4.53;;
67597;SDS011;62026;39.230;9.122;2022-11-04T05:52:06;18.70;;;4.78;;
67597;SDS011;62026;39.230;9.122;2022-11-04T05:54:32;15.52;;;4.68;;
67597;SDS011;62026;39.230;9.122;2022-11-04T05:57:02;21.67;;;5.70;;
67597;SDS011;62026;39.230;9.122;2022-11-04T05:59:28;17.17;;;4.50;;
67597;SDS011;62026;39.230;9.122;2022-11-04T06:01:53;19.48;;;3.97;;
67597;SDS011;62026;39.230;9.122;2022-11-04T06:04:19;15.65;;;4.78;;
67597;SDS011;62026;39.230;9.122;2022-11-04T06:06:45;15.68;;;4.32;;
67597;SDS011;62026;39.230;9.122;2022-11-04T06:09:11;16.30;;;3.85;;
67597;SDS011;62026;39.230;9.122;2022-11-04T06:11:38;14.48;;;3.90;;
67597;SDS011;62026;39.230;9.122;2022-11-04T06:14:04;14.82;;;4.00;;
67597;SDS011;62026;39.230;9.122;2022-11-04T06:16:30;17.38;;;3.83;;
67597;SDS011;62026;39.230;9.122;2022-11-04T06:18:56;19.33;;;4.45;;
67597;SDS011;62026;39.230;9.122;2022-11-04T06:23:56;17.77;;;4.10;;
67597;SDS011;62026;39.230;9.122;2022-11-04T06:26:24;18.10;;;4.25;;
67597;SDS011;62026;39.230;9.122;2022-11-04T06:28:53;12.40;;;3.70;;
67597;SDS011;62026;39.230;9.122;2022-11-04T06:31:19;21.77;;;4.03;;
67597;SDS011;62026;39.230;9.122;2022-11-04T06:33:45;15.95;;;4.03;;
67597;SDS011;62026;39.230;9.122;2022-11-04T06:36:12;23.92;;;4.13;;
67597;SDS011;62026;39.230;9.122;2022-11-04T06:38:40;12.68;;;3.47;;
67597;SDS011;62026;39.230;9.122;2022-11-04T06:41:09;13.20;;;3.80;;
67597;SDS011;62026;39.230;9.122;2022-11-04T06:43:38;21.58;;;4.65;;
67597;SDS011;62026;39.230;9.122;2022-11-04T06:46:05;14.07;;;3.85;;
67597;SDS011;62026;39.230;9.122;2022-11-04T06:51:13;17.52;;;4.50;;
67597;SDS011;62026;39.230;9.122;2022-11-04T06:53:39;21.05;;;4.97;;
67597;SDS011;62026;39.230;9.122;2022-11-04T06:56:05;14.25;;;4.18;;
67597;SDS011;62026;39.230;9.122;2022-11-04T06:58:31;17.35;;;4.72;;
67597;SDS011;62026;39.230;9.122;2022-11-04T07:00:57;15.38;;;4.13;;
67597;SDS011;62026;39.230;9.122;2022-11-04T07:03:23;17.67;;;4.20;;
67597;SDS011;62026;39.230;9.122;2022-11-04T07:05:49;25.60;;;5.15;;
67597;SDS011;62026;39.230;9.122;2022-11-04T07:08:15;19.17;;;5.13;;
67597;SDS011;62026;39.230;9.122;2022-11-04T07:10:41;15.55;;;4.35;;
67597;SDS011;62026;39.230;9.122;2022-11-04T07:13:07;23.05;;;5.22;;
67597;SDS011;62026;39.230;9.122;2022-11-04T07:15:33;19.85;;;4.70;;
67597;SDS011;62026;39.230;9.122;2022-11-04T07:18:00;22.27;;;5.75;;
67597;SDS011;62026;39.230;9.122;2022-11-04T07:20:26;17.95;;;4.38;;
67597;SDS011;62026;39.230;9.122;2022-11-04T07:22:55;20.90;;;5.00;;
67597;SDS011;62026;39.230;9.122;2022-11-04T07:25:21;23.58;;;4.70;;
67597;SDS011;62026;39.230;9.122;2022-11-04T07:27:47;18.05;;;4.72;;
67597;SDS011;62026;39.230;9.122;2022-11-04T07:30:13;21.52;;;4.97;;
67597;SDS011;62026;39.230;9.122;2022-11-04T07:32:39;18.92;;;4.50;;
67597;SDS011;62026;39.230;9.122;2022-11-04T07:35:05;19.05;;;5.28;;
67597;SDS011;62026;39.230;9.122;2022-11-04T07:37:31;22.27;;;5.43;;
67597;SDS011;62026;39.230;9.122;2022-11-04T07:39:57;20.48;;;5.63;;
67597;SDS011;62026;39.230;9.122;2022-11-04T07:42:23;15.32;;;5.57;;
67597;SDS011;62026;39.230;9.122;2022-11-04T07:44:53;19.38;;;5.95;;
67597;SDS011;62026;39.230;9.122;2022-11-04T07:47:19;17.25;;;4.93;;
67597;SDS011;62026;39.230;9.122;2022-11-04T07:49:45;21.52;;;4.82;;
67597;SDS011;62026;39.230;9.122;2022-11-04T07:52:11;22.65;;;5.15;;
67597;SDS011;62026;39.230;9.122;2022-11-04T07:54:37;17.55;;;4.38;;
67597;SDS011;62026;39.230;9.122;2022-11-04T07:57:03;16.90;;;4.10;;
67597;SDS011;62026;39.230;9.122;2022-11-04T07:59:29;19.83;;;5.03;;
67597;SDS011;62026;39.230;9.122;2022-11-04T08:01:55;20.85;;;4.57;;
67597;SDS011;62026;39.230;9.122;2022-11-04T08:04:21;21.88;;;4.13;;
67597;SDS011;62026;39.230;9.122;2022-11-04T08:06:47;18.77;;;4.40;;
67597;SDS011;62026;39.230;9.122;2022-11-04T08:09:13;23.05;;;3.97;;
67597;SDS011;62026;39.230;9.122;2022-11-04T08:11:39;21.17;;;4.03;;
67597;SDS011;62026;39.230;9.122;2022-11-04T08:14:05;15.23;;;5.18;;
67597;SDS011;62026;39.230;9.122;2022-11-04T08:16:31;19.17;;;4.70;;
67597;SDS011;62026;39.230;9.122;2022-11-04T08:18:57;17.48;;;4.15;;
67597;SDS011;62026;39.230;9.122;2022-11-04T08:21:29;20.73;;;4.75;;
67597;SDS011;62026;39.230;9.122;2022-11-04T08:23:58;26.52;;;4.88;;
67597;SDS011;62026;39.230;9.122;2022-11-04T08:26:27;21.08;;;5.20;;
67597;SDS011;62026;39.230;9.122;2022-11-04T08:28:53;20.98;;;5.75;;
67597;SDS011;62026;39.230;9.122;2022-11-04T08:31:23;23.73;;;6.90;;
67597;SDS011;62026;39.230;9.122;2022-11-04T08:33:53;18.63;;;6.70;;
67597;SDS011;62026;39.230;9.122;2022-11-04T08:36:28;14.70;;;5.10;;
67597;SDS011;62026;39.230;9.122;2022-11-04T08:38:57;9.95;;;3.17;;
67597;SDS011;62026;39.230;9.122;2022-11-04T08:41:25;7.50;;;2.05;;
67597;SDS011;62026;39.230;9.122;2022-11-04T08:43:57;6.18;;;2.58;;
67597;SDS011;62026;39.230;9.122;2022-11-04T08:46:28;6.65;;;1.50;;
67597;SDS011;62026;39.230;9.122;2022-11-04T08:48:58;5.63;;;1.50;;
67597;SDS011;62026;39.230;9.122;2022-11-04T08:51:25;5.80;;;1.60;;
67597;SDS011;62026;39.230;9.122;2022-11-04T08:53:52;6.53;;;1.70;;
67597;SDS011;62026;39.230;9.122;2022-11-04T08:56:20;6.68;;;1.98;;
67597;SDS011;62026;39.230;9.122;2022-11-04T08:58:50;7.68;;;2.33;;
67597;SDS011;62026;39.230;9.122;2022-11-04T09:01:17;7.05;;;1.60;;
67597;SDS011;62026;39.230;9.122;2022-11-04T09:03:45;6.20;;;1.85;;
67597;SDS011;62026;39.230;9.122;2022-11-04T09:06:13;5.55;;;1.58;;
67597;SDS011;62026;39.230;9.122;2022-11-04T09:08:47;7.07;;;1.73;;
67597;SDS011;62026;39.230;9.122;2022-11-04T09:11:14;8.38;;;1.48;;
67597;SDS011;62026;39.230;9.122;2022-11-04T09:13:41;7.20;;;1.83;;
67597;SDS011;62026;39.230;9.122;2022-11-04T09:16:09;7.50;;;2.05;;
67597;SDS011;62026;39.230;9.122;2022-11-04T09:18:38;6.18;;;1.63;;
67597;SDS011;62026;39.230;9.122;2022-11-04T09:21:05;8.88;;;1.73;;
67597;SDS011;62026;39.230;9.122;2022-11-04T09:23:33;8.98;;;2.08;;
67597;SDS011;62026;39.230;9.122;2022-11-04T09:26:07;10.98;;;1.80;;
67597;SDS011;62026;39.230;9.122;2022-11-04T09:28:37;9.68;;;2.05;;
67597;SDS011;62026;39.230;9.122;2022-11-04T09:31:07;5.60;;;1.95;;
67597;SDS011;62026;39.230;9.122;2022-11-04T09:33:37;10.07;;;2.05;;
67597;SDS011;62026;39.230;9.122;2022-11-04T09:36:03;8.88;;;1.90;;
67597;SDS011;62026;39.230;9.122;2022-11-04T09:38:30;4.90;;;2.10;;
67597;SDS011;62026;39.230;9.122;2022-11-04T09:40:57;10.18;;;2.40;;
67597;SDS011;62026;39.230;9.122;2022-11-04T09:46:28;11.85;;;2.28;;
67597;SDS011;62026;39.230;9.122;2022-11-04T09:48:58;10.05;;;2.80;;
67597;SDS011;62026;39.230;9.122;2022-11-04T09:51:28;10.63;;;2.30;;
67597;SDS011;62026;39.230;9.122;2022-11-04T09:53:56;6.97;;;2.08;;
67597;SDS011;62026;39.230;9.122;2022-11-04T09:58:57;7.00;;;2.60;;
67597;SDS011;62026;39.230;9.122;2022-11-04T10:01:31;9.73;;;2.75;;
67597;SDS011;62026;39.230;9.122;2022-11-04T10:16:34;13.07;;;3.78;;
67597;SDS011;62026;39.230;9.122;2022-11-04T10:21:56;8.27;;;2.80;;
67597;SDS011;62026;39.230;9.122;2022-11-04T10:24:41;12.02;;;3.70;;
67597;SDS011;62026;39.230;9.122;2022-11-04T10:30:03;9.75;;;2.75;;
67597;SDS011;62026;39.230;9.122;2022-11-04T10:38:07;11.35;;;3.25;;
67597;SDS011;62026;39.230;9.122;2022-11-04T10:40:38;10.05;;;2.72;;
67597;SDS011;62026;39.230;9.122;2022-11-04T10:43:08;9.27;;;3.15;;
67597;SDS011;62026;39.230;9.122;2022-11-04T10:45:42;12.32;;;3.22;;
67597;SDS011;62026;39.230;9.122;2022-11-04T10:48:15;13.82;;;3.55;;
67597;SDS011;62026;39.230;9.122;2022-11-04T10:50:54;10.32;;;3.30;;
67597;SDS011;62026;39.230;9.122;2022-11-04T10:53:23;13.60;;;3.22;;
67597;SDS011;62026;39.230;9.122;2022-11-04T10:56:03;11.88;;;3.13;;
67597;SDS011;62026;39.230;9.122;2022-11-04T10:59:28;11.18;;;2.47;;
67597;SDS011;62026;39.230;9.122;2022-11-04T11:02:17;12.65;;;3.40;;
67597;SDS011;62026;39.230;9.122;2022-11-04T11:04:43;10.30;;;3.20;;
67597;SDS011;62026;39.230;9.122;2022-11-04T11:07:12;11.32;;;3.17;;
67597;SDS011;62026;39.230;9.122;2022-11-04T11:12:22;9.32;;;3.10;;
67597;SDS011;62026;39.230;9.122;2022-11-04T11:17:50;10.50;;;2.78;;
67597;SDS011;62026;39.230;9.122;2022-11-04T11:20:24;6.93;;;2.75;;
67597;SDS011;62026;39.230;9.122;2022-11-04T11:22:51;7.85;;;2.75;;
67597;SDS011;62026;39.230;9.122;2022-11-04T11:25:28;8.55;;;2.55;;
67597;SDS011;62026;39.230;9.122;2022-11-04T11:30:27;11.00;;;2.90;;
67597;SDS011;62026;39.230;9.122;2022-11-04T11:36:05;10.57;;;2.85;;
67597;SDS011;62026;39.230;9.122;2022-11-04T11:38:58;7.93;;;2.75;;
67597;SDS011;62026;39.230;9.122;2022-11-04T11:41:57;8.27;;;2.30;;
67597;SDS011;62026;39.230;9.122;2022-11-04T11:44:38;8.65;;;2.22;;
67597;SDS011;62026;39.230;9.122;2022-11-04T11:52:54;8.75;;;2.47;;
67597;SDS011;62026;39.230;9.122;2022-11-04T11:55:51;5.93;;;2.00;;
67597;SDS011;62026;39.230;9.122;2022-11-04T12:01:13;3.92;;;1.70;;
67597;SDS011;62026;39.230;9.122;2022-11-04T12:03:48;4.55;;;1.33;;
67597;SDS011;62026;39.230;9.122;2022-11-04T12:15:31;6.43;;;2.22;;
67597;SDS011;62026;39.230;9.122;2022-11-04T12:18:48;5.70;;;2.10;;
67597;SDS011;62026;39.230;9.122;2022-11-04T12:21:34;7.78;;;2.55;;
67597;SDS011;62026;39.230;9.122;2022-11-04T12:30:46;4.93;;;2.53;;
67597;SDS011;62026;39.230;9.122;2022-11-04T12:34:01;5.13;;;2.10;;
67597;SDS011;62026;39.230;9.122;2022-11-04T12:39:49;5.20;;;1.90;;
67597;SDS011;62026;39.230;9.122;2022-11-04T12:57:15;5.75;;;1.92;;
67597;SDS011;62026;39.230;9.122;2022-11-04T13:00:15;6.63;;;1.20;;
67597;SDS011;62026;39.230;9.122;2022-11-04T13:02:50;3.08;;;1.40;;
67597;SDS011;62026;39.230;9.122;2022-11-04T13:05:41;6.00;;;0.95;;
67597;SDS011;62026;39.230;9.122;2022-11-04T13:08:39;5.20;;;1.00;;
67597;SDS011;62026;39.230;9.122;2022-11-04T13:16:45;4.32;;;1.02;;
67597;SDS011;62026;39.230;9.122;2022-11-04T13:22:06;4.00;;;1.20;;
67597;SDS011;62026;39.230;9.122;2022-11-04T13:27:43;2.00;;;1.00;;
67597;SDS011;62026;39.230;9.122;2022-11-04T13:36:29;2.92;;;1.20;;
67597;SDS011;62026;39.230;9.122;2022-11-04T13:39:34;5.18;;;1.08;;
67597;SDS011;62026;39.230;9.122;2022-11-04T13:44:50;4.43;;;1.00;;
67597;SDS011;62026;39.230;9.122;2022-11-04T13:47:23;3.38;;;0.90;;
67597;SDS011;62026;39.230;9.122;2022-11-04T13:49:56;3.10;;;1.40;;
67597;SDS011;62026;39.230;9.122;2022-11-04T13:52:26;3.10;;;1.02;;
67597;SDS011;62026;39.230;9.122;2022-11-04T13:54:58;4.43;;;0.90;;
67597;SDS011;62026;39.230;9.122;2022-11-04T13:57:46;5.20;;;1.13;;
67597;SDS011;62026;39.230;9.122;2022-11-04T14:00:25;3.30;;;1.10;;
67597;SDS011;62026;39.230;9.122;2022-11-04T14:02:54;4.32;;;1.00;;
67597;SDS011;62026;39.230;9.122;2022-11-04T14:18:49;2.72;;;1.02;;
67597;SDS011;62026;39.230;9.122;2022-11-04T14:21:18;2.97;;;0.95;;
67597;SDS011;62026;39.230;9.122;2022-11-04T14:23:55;3.47;;;0.93;;
67597;SDS011;62026;39.230;9.122;2022-11-04T14:26:25;5.25;;;1.33;;
67597;SDS011;62026;39.230;9.122;2022-11-04T14:29:16;4.20;;;0.90;;
67597;SDS011;62026;39.230;9.122;2022-11-04T14:31:52;3.22;;;1.20;;
67597;SDS011;62026;39.230;9.122;2022-11-04T14:36:59;4.10;;;0.90;;
67597;SDS011;62026;39.230;9.122;2022-11-04T14:39:56;1.55;;;0.80;;
67597;SDS011;62026;39.230;9.122;2022-11-04T14:45:33;3.03;;;0.60;;
67597;SDS011;62026;39.230;9.122;2022-11-04T14:48:10;1.88;;;0.80;;
67597;SDS011;62026;39.230;9.122;2022-11-04T14:50:44;2.63;;;0.60;;
67597;SDS011;62026;39.230;9.122;2022-11-04T14:53:21;1.88;;;0.60;;
67597;SDS011;62026;39.230;9.122;2022-11-04T14:56:05;2.47;;;0.60;;
67597;SDS011;62026;39.230;9.122;2022-11-04T14:58:57;3.97;;;0.63;;
67597;SDS011;62026;39.230;9.122;2022-11-04T15:01:32;3.83;;;1.08;;
67597;SDS011;62026;39.230;9.122;2022-11-04T15:09:24;2.88;;;0.73;;
67597;SDS011;62026;39.230;9.122;2022-11-04T15:12:05;2.47;;;1.00;;
67597;SDS011;62026;39.230;9.122;2022-11-04T15:14:53;1.77;;;0.90;;
67597;SDS011;62026;39.230;9.122;2022-11-04T15:17:21;1.95;;;0.70;;
67597;SDS011;62026;39.230;9.122;2022-11-04T15:19:52;2.97;;;0.90;;
67597;SDS011;62026;39.230;9.122;2022-11-04T15:22:21;4.80;;;1.15;;
67597;SDS011;62026;39.230;9.122;2022-11-04T15:24:48;2.35;;;0.70;;
67597;SDS011;62026;39.230;9.122;2022-11-04T15:27:18;3.42;;;1.08;;
67597;SDS011;62026;39.230;9.122;2022-11-04T15:32:20;2.80;;;1.17;;
67597;SDS011;62026;39.230;9.122;2022-11-04T15:34:46;3.88;;;1.00;;
67597;SDS011;62026;39.230;9.122;2022-11-04T15:37:13;2.47;;;1.05;;
67597;SDS011;62026;39.230;9.122;2022-11-04T15:39:45;5.30;;;1.50;;
67597;SDS011;62026;39.230;9.122;2022-11-04T15:42:48;5.35;;;1.40;;
67597;SDS011;62026;39.230;9.122;2022-11-04T15:45:24;5.68;;;1.58;;
67597;SDS011;62026;39.230;9.122;2022-11-04T15:51:00;6.45;;;1.33;;
67597;SDS011;62026;39.230;9.122;2022-11-04T15:56:22;8.93;;;2.22;;
67597;SDS011;62026;39.230;9.122;2022-11-04T15:58:52;3.88;;;1.58;;
67597;SDS011;62026;39.230;9.122;2022-11-04T16:01:21;8.10;;;1.60;;
67597;SDS011;62026;39.230;9.122;2022-11-04T16:03:51;5.63;;;1.67;;
67597;SDS011;62026;39.230;9.122;2022-11-04T16:06:36;4.28;;;1.48;;
67597;SDS011;62026;39.230;9.122;2022-11-04T16:11:38;4.72;;;1.73;;
67597;SDS011;62026;39.230;9.122;2022-11-04T16:17:00;6.05;;;2.60;;
67597;SDS011;62026;39.230;9.122;2022-11-04T16:19:26;10.75;;;3.53;;
67597;SDS011;62026;39.230;9.122;2022-11-04T16:22:00;9.57;;;3.30;;
67597;SDS011;62026;39.230;9.122;2022-11-04T16:24:37;11.07;;;3.25;;
67597;SDS011;62026;39.230;9.122;2022-11-04T16:27:08;7.53;;;2.33;;
67597;SDS011;62026;39.230;9.122;2022-11-04T16:32:12;8.18;;;2.85;;
67597;SDS011;62026;39.230;9.122;2022-11-04T16:34:56;5.65;;;2.28;;
67597;SDS011;62026;39.230;9.122;2022-11-04T16:37:27;6.90;;;2.60;;
67597;SDS011;62026;39.230;9.122;2022-11-04T16:39:54;8.18;;;2.78;;
67597;SDS011;62026;39.230;9.122;2022-11-04T16:42:20;9.90;;;3.00;;
67597;SDS011;62026;39.230;9.122;2022-11-04T16:44:48;9.43;;;2.53;;
67597;SDS011;62026;39.230;9.122;2022-11-04T16:47:17;5.10;;;2.40;;
67597;SDS011;62026;39.230;9.122;2022-11-04T16:49:44;5.32;;;2.47;;
67597;SDS011;62026;39.230;9.122;2022-11-04T16:52:12;9.02;;;2.90;;
67597;SDS011;62026;39.230;9.122;2022-11-04T16:54:42;6.20;;;2.63;;
67597;SDS011;62026;39.230;9.122;2022-11-04T16:57:12;5.43;;;2.67;;
67597;SDS011;62026;39.230;9.122;2022-11-04T16:59:39;10.27;;;3.15;;
67597;SDS011;62026;39.230;9.122;2022-11-04T17:04:55;7.55;;;2.97;;
67597;SDS011;62026;39.230;9.122;2022-11-04T17:07:22;4.80;;;2.17;;
67597;SDS011;62026;39.230;9.122;2022-11-04T17:09:48;5.68;;;2.20;;
67597;SDS011;62026;39.230;9.122;2022-11-04T17:12:14;6.60;;;2.97;;
67597;SDS011;62026;39.230;9.122;2022-11-04T17:14:40;6.88;;;2.22;;
67597;SDS011;62026;39.230;9.122;2022-11-04T17:17:06;5.53;;;1.85;;
67597;SDS011;62026;39.230;9.122;2022-11-04T17:19:34;3.97;;;1.80;;
67597;SDS011;62026;39.230;9.122;2022-11-04T17:22:00;9.57;;;2.58;;
67597;SDS011;62026;39.230;9.122;2022-11-04T17:24:29;7.50;;;2.85;;
67597;SDS011;62026;39.230;9.122;2022-11-04T17:26:55;8.20;;;3.50;;
67597;SDS011;62026;39.230;9.122;2022-11-04T17:29:21;10.43;;;3.42;;
67597;SDS011;62026;39.230;9.122;2022-11-04T17:31:47;11.75;;;4.45;;
67597;SDS011;62026;39.230;9.122;2022-11-04T17:34:14;11.60;;;4.70;;
67597;SDS011;62026;39.230;9.122;2022-11-04T17:36:40;12.73;;;3.95;;
67597;SDS011;62026;39.230;9.122;2022-11-04T17:39:06;10.98;;;3.80;;
67597;SDS011;62026;39.230;9.122;2022-11-04T17:41:32;9.90;;;3.90;;
67597;SDS011;62026;39.230;9.122;2022-11-04T17:44:16;9.63;;;3.97;;
67597;SDS011;62026;39.230;9.122;2022-11-04T17:46:42;10.35;;;3.50;;
67597;SDS011;62026;39.230;9.122;2022-11-04T17:49:13;9.27;;;3.28;;
67597;SDS011;62026;39.230;9.122;2022-11-04T17:51:46;6.72;;;3.22;;
67597;SDS011;62026;39.230;9.122;2022-11-04T17:54:15;8.77;;;2.95;;
67597;SDS011;62026;39.230;9.122;2022-11-04T17:56:41;10.20;;;3.78;;
67597;SDS011;62026;39.230;9.122;2022-11-04T17:59:08;7.05;;;3.92;;
67597;SDS011;62026;39.230;9.122;2022-11-04T18:01:37;20.90;;;11.27;;
67597;SDS011;62026;39.230;9.122;2022-11-04T18:04:04;19.85;;;11.35;;
67597;SDS011;62026;39.230;9.122;2022-11-04T18:06:33;13.00;;;7.93;;
67597;SDS011;62026;39.230;9.122;2022-11-04T18:09:00;13.40;;;7.22;;
67597;SDS011;62026;39.230;9.122;2022-11-04T18:11:28;12.57;;;6.38;;
67597;SDS011;62026;39.230;9.122;2022-11-04T18:14:14;9.35;;;5.40;;
67597;SDS011;62026;39.230;9.122;2022-11-04T18:16:43;11.98;;;5.75;;
67597;SDS011;62026;39.230;9.122;2022-11-04T18:19:13;8.98;;;4.85;;
67597;SDS011;62026;39.230;9.122;2022-11-04T18:21:41;5.50;;;1.73;;